sensor_id;sensor_type;location;lat;lon;timestamp;P1;durP1;ratioP1;P2;durP2;ratioP2
16963;SDS011;8598;50.508;10.436;2022-08-24T00:00:12;5.47;;;3.93;;
16963;SDS011;8598;50.508;10.436;2022-08-24T00:02:40;4.83;;;3.80;;
16963;SDS011;8598;50.508;10.436;2022-08-24T00:05:08;5.40;;;3.80;;
16963;SDS011;8598;50.508;10.436;2022-08-24T00:07:39;5.43;;;3.80;;
16963;SDS011;8598;50.508;10.436;2022-08-24T00:10:07;6.20;;;4.23;;
16963;SDS011;8598;50.508;10.436;2022-08-24T00:12:38;4.00;;;3.53;;
16963;SDS011;8598;50.508;10.436;2022-08-24T00:15:06;4.93;;;4.00;;
16963;SDS011;8598;50.508;10.436;2022-08-24T00:17:35;5.97;;;4.00;;
16963;SDS011;8598;50.508;10.436;2022-08-24T00:20:02;6.50;;;3.80;;
16963;SDS011;8598;50.508;10.436;2022-08-24T00:22:31;5.83;;;3.93;;
16963;SDS011;8598;50.508;10.436;2022-08-24T00:24:58;4.63;;;3.70;;
16963;SDS011;8598;50.508;10.436;2022-08-24T00:27:25;4.43;;;3.80;;
16963;SDS011;8598;50.508;10.436;2022-08-24T00:29:53;6.93;;;3.83;;
16963;SDS011;8598;50.508;10.436;2022-08-24T00:32:20;5.03;;;4.53;;
16963;SDS011;8598;50.508;10.436;2022-08-24T00:34:47;6.27;;;4.20;;
16963;SDS011;8598;50.508;10.436;2022-08-24T00:37:14;6.33;;;3.87;;
16963;SDS011;8598;50.508;10.436;2022-08-24T00:39:41;4.80;;;4.30;;
16963;SDS011;8598;50.508;10.436;2022-08-24T00:42:07;4.67;;;3.67;;
16963;SDS011;8598;50.508;10.436;2022-08-24T00:44:34;4.20;;;3.70;;
16963;SDS011;8598;50.508;10.436;2022-08-24T00:47:04;5.83;;;3.83;;
16963;SDS011;8598;50.508;10.436;2022-08-24T00:49:38;9.60;;;4.00;;
16963;SDS011;8598;50.508;10.436;2022-08-24T00:52:10;5.43;;;3.93;;
16963;SDS011;8598;50.508;10.436;2022-08-24T00:54:40;4.30;;;3.70;;
16963;SDS011;8598;50.508;10.436;2022-08-24T00:57:11;4.90;;;4.10;;
16963;SDS011;8598;50.508;10.436;2022-08-24T00:59:41;4.47;;;4.03;;
16963;SDS011;8598;50.508;10.436;2022-08-24T01:02:14;6.80;;;4.37;;
16963;SDS011;8598;50.508;10.436;2022-08-24T01:04:44;7.73;;;4.40;;
16963;SDS011;8598;50.508;10.436;2022-08-24T01:07:16;5.80;;;4.17;;
16963;SDS011;8598;50.508;10.436;2022-08-24T01:09:46;8.53;;;4.33;;
16963;SDS011;8598;50.508;10.436;2022-08-24T01:12:13;5.23;;;4.13;;
16963;SDS011;8598;50.508;10.436;2022-08-24T01:14:41;4.80;;;4.40;;
16963;SDS011;8598;50.508;10.436;2022-08-24T01:17:09;7.87;;;4.50;;
16963;SDS011;8598;50.508;10.436;2022-08-24T01:19:56;5.73;;;4.30;;
16963;SDS011;8598;50.508;10.436;2022-08-24T01:22:49;8.10;;;4.70;;
16963;SDS011;8598;50.508;10.436;2022-08-24T01:25:24;6.30;;;4.70;;
16963;SDS011;8598;50.508;10.436;2022-08-24T01:27:53;5.00;;;4.40;;
16963;SDS011;8598;50.508;10.436;2022-08-24T01:30:22;5.63;;;4.50;;
16963;SDS011;8598;50.508;10.436;2022-08-24T01:32:53;5.00;;;4.23;;
16963;SDS011;8598;50.508;10.436;2022-08-24T01:35:21;4.63;;;4.17;;
16963;SDS011;8598;50.508;10.436;2022-08-24T01:37:48;4.97;;;4.47;;
16963;SDS011;8598;50.508;10.436;2022-08-24T01:40:16;6.07;;;4.40;;
16963;SDS011;8598;50.508;10.436;2022-08-24T01:42:49;6.83;;;4.90;;
16963;SDS011;8598;50.508;10.436;2022-08-24T01:45:18;6.00;;;5.03;;
16963;SDS011;8598;50.508;10.436;2022-08-24T01:47:45;5.13;;;4.63;;
16963;SDS011;8598;50.508;10.436;2022-08-24T01:50:15;7.23;;;4.90;;
16963;SDS011;8598;50.508;10.436;2022-08-24T01:52:42;6.23;;;4.67;;
16963;SDS011;8598;50.508;10.436;2022-08-24T01:55:10;7.40;;;4.57;;
16963;SDS011;8598;50.508;10.436;2022-08-24T01:57:39;6.40;;;4.63;;
16963;SDS011;8598;50.508;10.436;2022-08-24T02:00:12;7.93;;;4.60;;
16963;SDS011;8598;50.508;10.436;2022-08-24T02:02:40;5.73;;;4.57;;
16963;SDS011;8598;50.508;10.436;2022-08-24T02:05:09;7.10;;;5.10;;
16963;SDS011;8598;50.508;10.436;2022-08-24T02:07:38;8.67;;;5.27;;
16963;SDS011;8598;50.508;10.436;2022-08-24T02:10:05;6.40;;;5.30;;
16963;SDS011;8598;50.508;10.436;2022-08-24T02:12:34;7.57;;;5.20;;
16963;SDS011;8598;50.508;10.436;2022-08-24T02:15:02;5.63;;;4.73;;
16963;SDS011;8598;50.508;10.436;2022-08-24T02:17:33;4.93;;;4.37;;
16963;SDS011;8598;50.508;10.436;2022-08-24T02:20:00;5.13;;;4.57;;
16963;SDS011;8598;50.508;10.436;2022-08-24T02:22:27;5.73;;;4.80;;
16963;SDS011;8598;50.508;10.436;2022-08-24T02:24:54;5.00;;;4.50;;
16963;SDS011;8598;50.508;10.436;2022-08-24T02:27:21;7.70;;;4.67;;
16963;SDS011;8598;50.508;10.436;2022-08-24T02:29:48;6.03;;;4.77;;
16963;SDS011;8598;50.508;10.436;2022-08-24T02:32:14;5.77;;;5.17;;
16963;SDS011;8598;50.508;10.436;2022-08-24T02:34:42;5.63;;;5.13;;
16963;SDS011;8598;50.508;10.436;2022-08-24T02:37:09;6.83;;;5.20;;
16963;SDS011;8598;50.508;10.436;2022-08-24T02:39:36;8.47;;;5.20;;
16963;SDS011;8598;50.508;10.436;2022-08-24T02:42:03;5.73;;;5.07;;
16963;SDS011;8598;50.508;10.436;2022-08-24T02:44:30;5.77;;;4.97;;
16963;SDS011;8598;50.508;10.436;2022-08-24T02:46:57;5.83;;;5.10;;
16963;SDS011;8598;50.508;10.436;2022-08-24T02:49:24;8.67;;;5.43;;
16963;SDS011;8598;50.508;10.436;2022-08-24T02:51:53;5.23;;;4.73;;
16963;SDS011;8598;50.508;10.436;2022-08-24T02:54:20;5.33;;;4.60;;
16963;SDS011;8598;50.508;10.436;2022-08-24T02:56:48;5.30;;;4.80;;
16963;SDS011;8598;50.508;10.436;2022-08-24T02:59:16;9.00;;;5.30;;
16963;SDS011;8598;50.508;10.436;2022-08-24T03:01:46;5.77;;;4.80;;
16963;SDS011;8598;50.508;10.436;2022-08-24T03:04:17;5.87;;;5.27;;
16963;SDS011;8598;50.508;10.436;2022-08-24T03:06:44;6.40;;;5.13;;
16963;SDS011;8598;50.508;10.436;2022-08-24T03:09:13;6.10;;;4.53;;
16963;SDS011;8598;50.508;10.436;2022-08-24T03:11:40;6.80;;;5.13;;
16963;SDS011;8598;50.508;10.436;2022-08-24T03:14:07;8.33;;;5.73;;
16963;SDS011;8598;50.508;10.436;2022-08-24T03:16:34;7.70;;;5.50;;
16963;SDS011;8598;50.508;10.436;2022-08-24T03:19:01;6.07;;;5.10;;
16963;SDS011;8598;50.508;10.436;2022-08-24T03:21:28;5.40;;;4.90;;
16963;SDS011;8598;50.508;10.436;2022-08-24T03:23:55;6.33;;;5.47;;
16963;SDS011;8598;50.508;10.436;2022-08-24T03:26:23;7.13;;;4.63;;
16963;SDS011;8598;50.508;10.436;2022-08-24T03:28:50;5.80;;;5.20;;
16963;SDS011;8598;50.508;10.436;2022-08-24T03:31:17;7.90;;;5.67;;
16963;SDS011;8598;50.508;10.436;2022-08-24T03:33:44;6.17;;;4.67;;
16963;SDS011;8598;50.508;10.436;2022-08-24T03:36:11;8.67;;;5.30;;
16963;SDS011;8598;50.508;10.436;2022-08-24T03:38:38;11.93;;;5.37;;
16963;SDS011;8598;50.508;10.436;2022-08-24T03:41:05;12.30;;;5.50;;
16963;SDS011;8598;50.508;10.436;2022-08-24T03:43:42;11.73;;;5.10;;
16963;SDS011;8598;50.508;10.436;2022-08-24T03:46:13;13.80;;;5.30;;
16963;SDS011;8598;50.508;10.436;2022-08-24T03:48:46;15.33;;;5.40;;
16963;SDS011;8598;50.508;10.436;2022-08-24T03:51:17;8.50;;;5.60;;
16963;SDS011;8598;50.508;10.436;2022-08-24T03:53:47;11.00;;;6.07;;
16963;SDS011;8598;50.508;10.436;2022-08-24T03:56:15;9.97;;;6.00;;
16963;SDS011;8598;50.508;10.436;2022-08-24T03:58:44;6.53;;;5.30;;
16963;SDS011;8598;50.508;10.436;2022-08-24T04:01:15;11.53;;;5.73;;
16963;SDS011;8598;50.508;10.436;2022-08-24T04:03:43;13.37;;;6.03;;
16963;SDS011;8598;50.508;10.436;2022-08-24T04:06:11;10.57;;;6.10;;
16963;SDS011;8598;50.508;10.436;2022-08-24T04:08:40;9.43;;;6.40;;
16963;SDS011;8598;50.508;10.436;2022-08-24T04:11:08;8.03;;;6.13;;
16963;SDS011;8598;50.508;10.436;2022-08-24T04:13:36;8.37;;;6.03;;
16963;SDS011;8598;50.508;10.436;2022-08-24T04:16:05;6.77;;;5.77;;
16963;SDS011;8598;50.508;10.436;2022-08-24T04:18:34;6.67;;;5.70;;
16963;SDS011;8598;50.508;10.436;2022-08-24T04:21:01;7.27;;;5.57;;
16963;SDS011;8598;50.508;10.436;2022-08-24T04:23:28;7.20;;;5.73;;
16963;SDS011;8598;50.508;10.436;2022-08-24T04:25:55;7.13;;;5.73;;
16963;SDS011;8598;50.508;10.436;2022-08-24T04:28:28;7.57;;;5.37;;
16963;SDS011;8598;50.508;10.436;2022-08-24T04:30:55;8.03;;;6.00;;
16963;SDS011;8598;50.508;10.436;2022-08-24T04:33:24;10.33;;;5.87;;
16963;SDS011;8598;50.508;10.436;2022-08-24T04:35:50;8.57;;;5.50;;
16963;SDS011;8598;50.508;10.436;2022-08-24T04:38:17;7.10;;;5.37;;
16963;SDS011;8598;50.508;10.436;2022-08-24T04:40:45;7.37;;;5.07;;
16963;SDS011;8598;50.508;10.436;2022-08-24T04:43:13;9.07;;;5.63;;
16963;SDS011;8598;50.508;10.436;2022-08-24T04:45:41;7.07;;;4.83;;
16963;SDS011;8598;50.508;10.436;2022-08-24T04:48:09;7.10;;;5.60;;
16963;SDS011;8598;50.508;10.436;2022-08-24T04:50:38;9.40;;;5.87;;
16963;SDS011;8598;50.508;10.436;2022-08-24T04:53:06;6.87;;;5.60;;
16963;SDS011;8598;50.508;10.436;2022-08-24T04:55:40;7.97;;;5.10;;
16963;SDS011;8598;50.508;10.436;2022-08-24T04:58:08;6.40;;;5.80;;
16963;SDS011;8598;50.508;10.436;2022-08-24T05:00:35;5.93;;;5.23;;
16963;SDS011;8598;50.508;10.436;2022-08-24T05:03:02;12.33;;;5.47;;
16963;SDS011;8598;50.508;10.436;2022-08-24T05:05:29;5.73;;;4.77;;
16963;SDS011;8598;50.508;10.436;2022-08-24T05:07:58;5.90;;;5.30;;
16963;SDS011;8598;50.508;10.436;2022-08-24T05:10:25;10.80;;;5.50;;
16963;SDS011;8598;50.508;10.436;2022-08-24T05:12:52;6.40;;;5.43;;
16963;SDS011;8598;50.508;10.436;2022-08-24T05:15:19;6.07;;;5.43;;
16963;SDS011;8598;50.508;10.436;2022-08-24T05:17:46;6.77;;;5.47;;
16963;SDS011;8598;50.508;10.436;2022-08-24T05:20:14;5.07;;;4.57;;
16963;SDS011;8598;50.508;10.436;2022-08-24T05:22:42;6.97;;;5.27;;
16963;SDS011;8598;50.508;10.436;2022-08-24T05:25:10;6.13;;;5.10;;
16963;SDS011;8598;50.508;10.436;2022-08-24T05:27:37;8.83;;;5.60;;
16963;SDS011;8598;50.508;10.436;2022-08-24T05:30:04;5.77;;;4.40;;
16963;SDS011;8598;50.508;10.436;2022-08-24T05:32:32;7.47;;;4.90;;
16963;SDS011;8598;50.508;10.436;2022-08-24T05:34:59;5.77;;;3.50;;
16963;SDS011;8598;50.508;10.436;2022-08-24T05:37:28;7.87;;;4.53;;
16963;SDS011;8598;50.508;10.436;2022-08-24T05:39:55;6.20;;;3.33;;
16963;SDS011;8598;50.508;10.436;2022-08-24T05:42:23;3.90;;;3.50;;
16963;SDS011;8598;50.508;10.436;2022-08-24T05:44:50;5.67;;;4.60;;
16963;SDS011;8598;50.508;10.436;2022-08-24T05:47:17;7.07;;;3.23;;
16963;SDS011;8598;50.508;10.436;2022-08-24T05:49:44;4.17;;;3.07;;
16963;SDS011;8598;50.508;10.436;2022-08-24T05:52:12;5.20;;;3.50;;
16963;SDS011;8598;50.508;10.436;2022-08-24T05:54:39;3.20;;;2.80;;
16963;SDS011;8598;50.508;10.436;2022-08-24T05:57:05;6.27;;;3.43;;
16963;SDS011;8598;50.508;10.436;2022-08-24T05:59:34;5.13;;;3.47;;
16963;SDS011;8598;50.508;10.436;2022-08-24T06:02:00;3.90;;;3.50;;
16963;SDS011;8598;50.508;10.436;2022-08-24T06:04:27;4.20;;;3.30;;
16963;SDS011;8598;50.508;10.436;2022-08-24T06:06:56;6.67;;;3.33;;
16963;SDS011;8598;50.508;10.436;2022-08-24T06:09:23;7.53;;;3.40;;
16963;SDS011;8598;50.508;10.436;2022-08-24T06:11:50;5.77;;;2.83;;
16963;SDS011;8598;50.508;10.436;2022-08-24T06:14:17;4.00;;;3.30;;
16963;SDS011;8598;50.508;10.436;2022-08-24T06:16:46;3.60;;;3.17;;
16963;SDS011;8598;50.508;10.436;2022-08-24T06:19:14;5.53;;;3.53;;
16963;SDS011;8598;50.508;10.436;2022-08-24T06:21:43;5.73;;;3.20;;
16963;SDS011;8598;50.508;10.436;2022-08-24T06:24:13;5.73;;;3.40;;
16963;SDS011;8598;50.508;10.436;2022-08-24T06:26:44;9.00;;;3.87;;
16963;SDS011;8598;50.508;10.436;2022-08-24T06:29:29;5.27;;;3.30;;
16963;SDS011;8598;50.508;10.436;2022-08-24T06:32:00;4.03;;;3.23;;
16963;SDS011;8598;50.508;10.436;2022-08-24T06:34:27;3.80;;;3.40;;
16963;SDS011;8598;50.508;10.436;2022-08-24T06:36:54;3.70;;;3.27;;
16963;SDS011;8598;50.508;10.436;2022-08-24T06:39:21;4.93;;;3.20;;
16963;SDS011;8598;50.508;10.436;2022-08-24T06:41:48;6.73;;;3.10;;
16963;SDS011;8598;50.508;10.436;2022-08-24T06:44:15;4.07;;;3.43;;
16963;SDS011;8598;50.508;10.436;2022-08-24T06:46:47;5.57;;;3.63;;
16963;SDS011;8598;50.508;10.436;2022-08-24T07:00:53;3.30;;;3.00;;
16963;SDS011;8598;50.508;10.436;2022-08-24T07:04:03;3.53;;;3.23;;
16963;SDS011;8598;50.508;10.436;2022-08-24T07:06:39;3.80;;;3.40;;
16963;SDS011;8598;50.508;10.436;2022-08-24T07:09:21;3.47;;;3.17;;
16963;SDS011;8598;50.508;10.436;2022-08-24T07:12:03;3.63;;;3.10;;
16963;SDS011;8598;50.508;10.436;2022-08-24T07:14:46;5.70;;;3.50;;
16963;SDS011;8598;50.508;10.436;2022-08-24T07:17:14;9.17;;;3.40;;
16963;SDS011;8598;50.508;10.436;2022-08-24T07:19:43;3.50;;;3.10;;
16963;SDS011;8598;50.508;10.436;2022-08-24T07:22:12;3.13;;;2.80;;
16963;SDS011;8598;50.508;10.436;2022-08-24T07:24:39;4.33;;;3.07;;
16963;SDS011;8598;50.508;10.436;2022-08-24T07:27:07;2.95;;;2.75;;
16963;SDS011;8598;50.508;10.436;2022-08-24T07:29:53;3.47;;;2.78;;
16963;SDS011;8598;50.508;10.436;2022-08-24T07:32:21;4.00;;;3.35;;
16963;SDS011;8598;50.508;10.436;2022-08-24T07:34:48;4.30;;;2.78;;
16963;SDS011;8598;50.508;10.436;2022-08-24T07:37:15;3.70;;;2.60;;
16963;SDS011;8598;50.508;10.436;2022-08-24T07:39:42;5.53;;;2.60;;
16963;SDS011;8598;50.508;10.436;2022-08-24T07:42:09;5.70;;;2.60;;
16963;SDS011;8598;50.508;10.436;2022-08-24T07:44:36;3.40;;;2.55;;
16963;SDS011;8598;50.508;10.436;2022-08-24T07:47:05;4.18;;;2.90;;
16963;SDS011;8598;50.508;10.436;2022-08-24T07:49:32;4.20;;;2.35;;
16963;SDS011;8598;50.508;10.436;2022-08-24T07:52:00;4.45;;;2.92;;
16963;SDS011;8598;50.508;10.436;2022-08-24T07:54:27;4.90;;;2.60;;
16963;SDS011;8598;50.508;10.436;2022-08-24T07:56:54;3.65;;;2.92;;
16963;SDS011;8598;50.508;10.436;2022-08-24T07:59:24;3.30;;;2.08;;
16963;SDS011;8598;50.508;10.436;2022-08-24T08:01:51;4.05;;;2.58;;
16963;SDS011;8598;50.508;10.436;2022-08-24T08:04:20;7.03;;;2.63;;
16963;SDS011;8598;50.508;10.436;2022-08-24T08:06:49;5.95;;;2.78;;
16963;SDS011;8598;50.508;10.436;2022-08-24T08:09:16;5.43;;;2.67;;
16963;SDS011;8598;50.508;10.436;2022-08-24T08:11:43;5.30;;;2.50;;
16963;SDS011;8598;50.508;10.436;2022-08-24T08:14:09;5.50;;;2.85;;
16963;SDS011;8598;50.508;10.436;2022-08-24T08:16:37;4.57;;;2.30;;
16963;SDS011;8598;50.508;10.436;2022-08-24T08:19:04;8.13;;;2.72;;
16963;SDS011;8598;50.508;10.436;2022-08-24T08:21:32;5.75;;;3.08;;
16963;SDS011;8598;50.508;10.436;2022-08-24T08:24:16;2.92;;;2.47;;
16963;SDS011;8598;50.508;10.436;2022-08-24T08:26:44;3.47;;;2.65;;
16963;SDS011;8598;50.508;10.436;2022-08-24T08:29:14;5.13;;;2.70;;
16963;SDS011;8598;50.508;10.436;2022-08-24T08:31:42;6.38;;;2.60;;
16963;SDS011;8598;50.508;10.436;2022-08-24T08:34:10;9.13;;;3.33;;
16963;SDS011;8598;50.508;10.436;2022-08-24T08:36:39;7.32;;;2.88;;
16963;SDS011;8598;50.508;10.436;2022-08-24T08:39:08;4.47;;;2.45;;
16963;SDS011;8598;50.508;10.436;2022-08-24T08:42:00;4.03;;;2.63;;
16963;SDS011;8598;50.508;10.436;2022-08-24T08:45:01;3.72;;;2.40;;
16963;SDS011;8598;50.508;10.436;2022-08-24T08:47:43;5.18;;;3.00;;
16963;SDS011;8598;50.508;10.436;2022-08-24T08:50:27;5.28;;;1.92;;
16963;SDS011;8598;50.508;10.436;2022-08-24T08:56:01;5.25;;;2.65;;
16963;SDS011;8598;50.508;10.436;2022-08-24T08:58:45;7.00;;;2.70;;
16963;SDS011;8598;50.508;10.436;2022-08-24T09:01:27;5.00;;;2.42;;
16963;SDS011;8598;50.508;10.436;2022-08-24T09:04:06;7.50;;;2.67;;
16963;SDS011;8598;50.508;10.436;2022-08-24T09:07:10;7.63;;;2.60;;
16963;SDS011;8598;50.508;10.436;2022-08-24T09:12:57;11.07;;;2.67;;
16963;SDS011;8598;50.508;10.436;2022-08-24T09:15:35;5.63;;;2.50;;
16963;SDS011;8598;50.508;10.436;2022-08-24T09:18:22;4.90;;;2.60;;
16963;SDS011;8598;50.508;10.436;2022-08-24T09:21:07;6.67;;;3.03;;
16963;SDS011;8598;50.508;10.436;2022-08-24T09:29:02;2.40;;;2.10;;
16963;SDS011;8598;50.508;10.436;2022-08-24T09:31:47;5.70;;;2.77;;
16963;SDS011;8598;50.508;10.436;2022-08-24T09:34:26;3.63;;;2.07;;
16963;SDS011;8598;50.508;10.436;2022-08-24T09:37:03;5.03;;;2.50;;
16963;SDS011;8598;50.508;10.436;2022-08-24T09:39:58;10.23;;;2.33;;
16963;SDS011;8598;50.508;10.436;2022-08-24T09:42:34;2.60;;;2.40;;
16963;SDS011;8598;50.508;10.436;2022-08-24T09:45:28;5.60;;;2.47;;
16963;SDS011;8598;50.508;10.436;2022-08-24T09:48:18;7.40;;;2.20;;
16963;SDS011;8598;50.508;10.436;2022-08-24T09:51:08;4.80;;;2.20;;
16963;SDS011;8598;50.508;10.436;2022-08-24T09:54:23;5.57;;;2.27;;
16963;SDS011;8598;50.508;10.436;2022-08-24T09:57:14;5.03;;;2.10;;
16963;SDS011;8598;50.508;10.436;2022-08-24T09:59:53;7.80;;;2.30;;
16963;SDS011;8598;50.508;10.436;2022-08-24T10:02:35;3.50;;;1.87;;
16963;SDS011;8598;50.508;10.436;2022-08-24T10:05:17;4.17;;;1.90;;
16963;SDS011;8598;50.508;10.436;2022-08-24T10:07:53;3.23;;;1.90;;
16963;SDS011;8598;50.508;10.436;2022-08-24T10:10:29;4.83;;;2.33;;
16963;SDS011;8598;50.508;10.436;2022-08-24T10:13:08;4.33;;;1.80;;
16963;SDS011;8598;50.508;10.436;2022-08-24T10:15:43;3.57;;;1.90;;
16963;SDS011;8598;50.508;10.436;2022-08-24T10:18:29;7.23;;;1.90;;
16963;SDS011;8598;50.508;10.436;2022-08-24T10:21:12;3.27;;;1.90;;
16963;SDS011;8598;50.508;10.436;2022-08-24T10:27:07;3.27;;;1.70;;
16963;SDS011;8598;50.508;10.436;2022-08-24T10:29:51;3.40;;;1.87;;
16963;SDS011;8598;50.508;10.436;2022-08-24T10:32:39;9.57;;;2.20;;
16963;SDS011;8598;50.508;10.436;2022-08-24T10:35:18;5.87;;;2.20;;
16963;SDS011;8598;50.508;10.436;2022-08-24T10:41:12;5.30;;;2.60;;
16963;SDS011;8598;50.508;10.436;2022-08-24T10:44:05;4.17;;;1.63;;
16963;SDS011;8598;50.508;10.436;2022-08-24T10:46:50;3.10;;;1.90;;
16963;SDS011;8598;50.508;10.436;2022-08-24T10:52:46;5.27;;;2.23;;
16963;SDS011;8598;50.508;10.436;2022-08-24T10:55:38;5.07;;;1.67;;
16963;SDS011;8598;50.508;10.436;2022-08-24T10:58:09;2.40;;;1.83;;
16963;SDS011;8598;50.508;10.436;2022-08-24T11:00:50;5.07;;;2.20;;
16963;SDS011;8598;50.508;10.436;2022-08-24T11:03:18;2.03;;;1.77;;
16963;SDS011;8598;50.508;10.436;2022-08-24T11:05:52;4.83;;;2.00;;
16963;SDS011;8598;50.508;10.436;2022-08-24T11:08:23;3.40;;;1.90;;
16963;SDS011;8598;50.508;10.436;2022-08-24T11:11:06;6.33;;;2.10;;
16963;SDS011;8598;50.508;10.436;2022-08-24T11:13:34;3.23;;;1.90;;
16963;SDS011;8598;50.508;10.436;2022-08-24T11:16:04;4.20;;;2.00;;
16963;SDS011;8598;50.508;10.436;2022-08-24T11:18:45;3.70;;;2.20;;
16963;SDS011;8598;50.508;10.436;2022-08-24T11:21:18;3.67;;;1.83;;
16963;SDS011;8598;50.508;10.436;2022-08-24T11:24:01;3.67;;;1.77;;
16963;SDS011;8598;50.508;10.436;2022-08-24T11:26:29;2.90;;;1.70;;
16963;SDS011;8598;50.508;10.436;2022-08-24T11:28:57;3.57;;;1.93;;
16963;SDS011;8598;50.508;10.436;2022-08-24T11:31:27;3.57;;;1.73;;
16963;SDS011;8598;50.508;10.436;2022-08-24T11:33:58;1.97;;;1.60;;
16963;SDS011;8598;50.508;10.436;2022-08-24T11:36:36;3.03;;;1.80;;
16963;SDS011;8598;50.508;10.436;2022-08-24T11:39:10;2.10;;;1.60;;
16963;SDS011;8598;50.508;10.436;2022-08-24T11:41:46;3.77;;;1.60;;
16963;SDS011;8598;50.508;10.436;2022-08-24T11:44:21;6.73;;;2.17;;
16963;SDS011;8598;50.508;10.436;2022-08-24T11:47:12;2.23;;;1.50;;
16963;SDS011;8598;50.508;10.436;2022-08-24T11:49:59;7.17;;;1.80;;
16963;SDS011;8598;50.508;10.436;2022-08-24T11:52:36;3.00;;;1.70;;
16963;SDS011;8598;50.508;10.436;2022-08-24T11:55:16;4.27;;;1.87;;
16963;SDS011;8598;50.508;10.436;2022-08-24T11:57:51;2.87;;;1.80;;
16963;SDS011;8598;50.508;10.436;2022-08-24T12:00:23;2.10;;;1.70;;
16963;SDS011;8598;50.508;10.436;2022-08-24T12:02:55;2.63;;;1.80;;
16963;SDS011;8598;50.508;10.436;2022-08-24T12:05:29;2.83;;;1.87;;
16963;SDS011;8598;50.508;10.436;2022-08-24T12:08:04;1.97;;;1.80;;
16963;SDS011;8598;50.508;10.436;2022-08-24T12:10:42;3.07;;;1.63;;
16963;SDS011;8598;50.508;10.436;2022-08-24T12:13:21;5.93;;;1.70;;
16963;SDS011;8598;50.508;10.436;2022-08-24T12:16:02;4.00;;;1.70;;
16963;SDS011;8598;50.508;10.436;2022-08-24T12:18:39;5.57;;;1.70;;
16963;SDS011;8598;50.508;10.436;2022-08-24T12:21:13;1.67;;;1.57;;
16963;SDS011;8598;50.508;10.436;2022-08-24T12:23:43;3.77;;;1.90;;
16963;SDS011;8598;50.508;10.436;2022-08-24T12:26:18;2.17;;;1.70;;
16963;SDS011;8598;50.508;10.436;2022-08-24T12:28:52;3.83;;;1.70;;
16963;SDS011;8598;50.508;10.436;2022-08-24T12:31:28;1.70;;;1.60;;
16963;SDS011;8598;50.508;10.436;2022-08-24T12:34:03;2.17;;;1.60;;
16963;SDS011;8598;50.508;10.436;2022-08-24T12:36:37;2.47;;;1.60;;
16963;SDS011;8598;50.508;10.436;2022-08-24T12:39:09;1.43;;;1.33;;
16963;SDS011;8598;50.508;10.436;2022-08-24T12:41:46;4.30;;;1.43;;
16963;SDS011;8598;50.508;10.436;2022-08-24T12:44:19;2.10;;;1.30;;
16963;SDS011;8598;50.508;10.436;2022-08-24T12:46:51;4.07;;;1.50;;
16963;SDS011;8598;50.508;10.436;2022-08-24T12:49:21;5.07;;;1.53;;
16963;SDS011;8598;50.508;10.436;2022-08-24T12:55:05;2.63;;;1.27;;
16963;SDS011;8598;50.508;10.436;2022-08-24T12:57:49;3.17;;;1.50;;
16963;SDS011;8598;50.508;10.436;2022-08-24T13:00:23;4.00;;;1.37;;
16963;SDS011;8598;50.508;10.436;2022-08-24T13:02:54;3.43;;;1.20;;
16963;SDS011;8598;50.508;10.436;2022-08-24T13:05:24;1.80;;;1.40;;
16963;SDS011;8598;50.508;10.436;2022-08-24T13:08:11;2.27;;;1.47;;
16963;SDS011;8598;50.508;10.436;2022-08-24T13:10:41;2.70;;;1.30;;
16963;SDS011;8598;50.508;10.436;2022-08-24T13:13:22;2.70;;;1.40;;
16963;SDS011;8598;50.508;10.436;2022-08-24T13:16:07;1.70;;;1.30;;
16963;SDS011;8598;50.508;10.436;2022-08-24T13:21:37;4.13;;;1.53;;
16963;SDS011;8598;50.508;10.436;2022-08-24T13:24:39;1.93;;;1.60;;
16963;SDS011;8598;50.508;10.436;2022-08-24T13:30:28;1.67;;;1.30;;
16963;SDS011;8598;50.508;10.436;2022-08-24T13:33:10;3.20;;;1.30;;
16963;SDS011;8598;50.508;10.436;2022-08-24T13:38:30;1.43;;;1.33;;
16963;SDS011;8598;50.508;10.436;2022-08-24T13:41:22;1.23;;;1.10;;
16963;SDS011;8598;50.508;10.436;2022-08-24T13:44:05;1.40;;;1.30;;
16963;SDS011;8598;50.508;10.436;2022-08-24T13:46:43;1.57;;;1.47;;
16963;SDS011;8598;50.508;10.436;2022-08-24T13:49:28;2.97;;;1.40;;
16963;SDS011;8598;50.508;10.436;2022-08-24T13:52:13;2.70;;;1.30;;
16963;SDS011;8598;50.508;10.436;2022-08-24T13:54:48;2.50;;;1.30;;
16963;SDS011;8598;50.508;10.436;2022-08-24T13:57:33;1.63;;;1.40;;
16963;SDS011;8598;50.508;10.436;2022-08-24T14:00:14;1.37;;;1.20;;
16963;SDS011;8598;50.508;10.436;2022-08-24T14:03:03;4.93;;;1.63;;
16963;SDS011;8598;50.508;10.436;2022-08-24T14:05:40;1.77;;;1.37;;
16963;SDS011;8598;50.508;10.436;2022-08-24T14:08:15;2.13;;;1.40;;
16963;SDS011;8598;50.508;10.436;2022-08-24T14:11:07;1.40;;;1.30;;
16963;SDS011;8598;50.508;10.436;2022-08-24T14:16:25;1.73;;;1.63;;
16963;SDS011;8598;50.508;10.436;2022-08-24T14:19:33;4.40;;;1.37;;
16963;SDS011;8598;50.508;10.436;2022-08-24T14:22:14;3.17;;;1.67;;
16963;SDS011;8598;50.508;10.436;2022-08-24T14:24:56;2.50;;;1.47;;
16963;SDS011;8598;50.508;10.436;2022-08-24T14:27:37;1.70;;;1.60;;
16963;SDS011;8598;50.508;10.436;2022-08-24T14:33:13;3.33;;;1.77;;
16963;SDS011;8598;50.508;10.436;2022-08-24T14:35:56;5.33;;;2.03;;
16963;SDS011;8598;50.508;10.436;2022-08-24T14:41:25;2.97;;;1.77;;
16963;SDS011;8598;50.508;10.436;2022-08-24T14:44:09;2.47;;;1.80;;
16963;SDS011;8598;50.508;10.436;2022-08-24T14:46:50;2.70;;;1.83;;
16963;SDS011;8598;50.508;10.436;2022-08-24T14:49:28;3.93;;;1.70;;
16963;SDS011;8598;50.508;10.436;2022-08-24T14:52:23;3.90;;;1.90;;
16963;SDS011;8598;50.508;10.436;2022-08-24T14:55:17;1.93;;;1.60;;
16963;SDS011;8598;50.508;10.436;2022-08-24T14:57:55;2.47;;;1.63;;
16963;SDS011;8598;50.508;10.436;2022-08-24T15:00:47;2.17;;;1.70;;
16963;SDS011;8598;50.508;10.436;2022-08-24T15:03:27;3.53;;;1.87;;
16963;SDS011;8598;50.508;10.436;2022-08-24T15:06:19;2.47;;;1.87;;
16963;SDS011;8598;50.508;10.436;2022-08-24T15:08:52;3.23;;;1.90;;
16963;SDS011;8598;50.508;10.436;2022-08-24T15:11:20;3.17;;;1.90;;
16963;SDS011;8598;50.508;10.436;2022-08-24T15:13:52;2.97;;;1.83;;
16963;SDS011;8598;50.508;10.436;2022-08-24T15:16:21;3.80;;;1.70;;
16963;SDS011;8598;50.508;10.436;2022-08-24T15:18:55;3.30;;;1.53;;
16963;SDS011;8598;50.508;10.436;2022-08-24T15:21:31;3.00;;;1.50;;
16963;SDS011;8598;50.508;10.436;2022-08-24T15:24:12;1.87;;;1.30;;
16963;SDS011;8598;50.508;10.436;2022-08-24T15:26:57;2.80;;;1.77;;
16963;SDS011;8598;50.508;10.436;2022-08-24T15:29:32;3.67;;;1.80;;
16963;SDS011;8598;50.508;10.436;2022-08-24T15:32:03;2.83;;;1.70;;
16963;SDS011;8598;50.508;10.436;2022-08-24T15:34:34;2.23;;;1.60;;
16963;SDS011;8598;50.508;10.436;2022-08-24T15:37:03;5.13;;;1.90;;
16963;SDS011;8598;50.508;10.436;2022-08-24T15:39:31;2.83;;;2.00;;
16963;SDS011;8598;50.508;10.436;2022-08-24T15:42:04;2.20;;;1.80;;
16963;SDS011;8598;50.508;10.436;2022-08-24T15:44:34;1.67;;;1.57;;
16963;SDS011;8598;50.508;10.436;2022-08-24T15:47:02;3.30;;;1.50;;
16963;SDS011;8598;50.508;10.436;2022-08-24T15:49:44;2.83;;;1.60;;
16963;SDS011;8598;50.508;10.436;2022-08-24T15:52:34;2.87;;;1.60;;
16963;SDS011;8598;50.508;10.436;2022-08-24T15:55:10;1.60;;;1.50;;
16963;SDS011;8598;50.508;10.436;2022-08-24T15:57:51;7.80;;;1.97;;
16963;SDS011;8598;50.508;10.436;2022-08-24T16:00:18;3.87;;;1.70;;
16963;SDS011;8598;50.508;10.436;2022-08-24T16:03:15;3.40;;;1.80;;
16963;SDS011;8598;50.508;10.436;2022-08-24T16:05:45;2.57;;;1.80;;
16963;SDS011;8598;50.508;10.436;2022-08-24T16:08:13;2.53;;;1.70;;
16963;SDS011;8598;50.508;10.436;2022-08-24T16:10:42;1.87;;;1.70;;
16963;SDS011;8598;50.508;10.436;2022-08-24T16:13:12;3.20;;;1.77;;
16963;SDS011;8598;50.508;10.436;2022-08-24T16:15:47;3.70;;;1.70;;
16963;SDS011;8598;50.508;10.436;2022-08-24T16:18:17;2.33;;;1.50;;